createdAt,value
2018-03-26T00:00:00.223Z,787.84
2018-03-26T00:00:04.331Z,787.89
2018-03-26T00:00:08.545Z,787.88
2018-03-26T00:00:12.860Z,787.87
2018-03-26T00:00:16.962Z,787.88
2018-03-26T00:00:21.062Z,787.9
2018-03-26T00:00:25.269Z,787.91
2018-03-26T00:00:29.619Z,787.91
2018-03-26T00:00:33.615Z,787.9
2018-03-26T00:00:37.713Z,787.88
2018-03-26T00:00:41.926Z,787.89
2018-03-26T00:00:46.249Z,787.94
2018-03-26T00:00:50.561Z,787.93
2018-03-26T00:00:54.557Z,787.92
2018-03-26T00:00:58.772Z,787.92
2018-03-26T00:01:03.034Z,787.9
2018-03-26T00:01:07.029Z,787.92
2018-03-26T00:01:11.304Z,787.92
2018-03-26T00:01:15.624Z,787.92
2018-03-26T00:01:19.833Z,787.95
2018-03-26T00:01:24.040Z,787.92
2018-03-26T00:01:28.264Z,787.93
2018-03-26T00:01:32.588Z,787.95
2018-03-26T00:01:36.595Z,787.97
2018-03-26T00:01:40.589Z,787.95
2018-03-26T00:01:44.577Z,787.94
2018-03-26T00:01:48.690Z,787.92
2018-03-26T00:01:53.014Z,787.95
2018-03-26T00:01:56.788Z,787.97
2018-03-26T00:02:00.688Z,787.93
2018-03-26T00:02:04.807Z,787.96
2018-03-26T00:02:08.800Z,787.97
2018-03-26T00:02:12.798Z,787.97
2018-03-26T00:02:16.792Z,787.96
2018-03-26T00:02:20.891Z,787.97
2018-03-26T00:02:24.996Z,787.98
2018-03-26T00:02:29.096Z,787.98
2018-03-26T00:02:33.092Z,787.99
2018-03-26T00:02:37.085Z,787.99
2018-03-26T00:02:41.199Z,788
2018-03-26T00:02:45.183Z,787.99
2018-03-26T00:02:49.225Z,788.01
2018-03-26T00:02:53.428Z,788.02
2018-03-26T00:02:57.528Z,787.99
2018-03-26T00:03:01.215Z,788.01
2018-03-26T00:03:05.331Z,788.02
2018-03-26T00:03:09.322Z,787.99
2018-03-26T00:03:13.531Z,788.01
2018-03-26T00:03:17.740Z,788.03
2018-03-26T00:03:22.111Z,788.05
2018-03-26T00:03:26.114Z,788.03
2018-03-26T00:03:30.334Z,788.01
2018-03-26T00:03:34.555Z,788.03
2018-03-26T00:03:38.435Z,788.04
2018-03-26T00:03:42.217Z,788.04
2018-03-26T00:03:46.421Z,788.06
2018-03-26T00:03:50.525Z,788.04
2018-03-26T00:03:54.839Z,788.06
2018-03-26T00:03:58.941Z,788.07
2018-03-26T00:04:02.768Z,788.07
2018-03-26T00:04:06.764Z,788.05
2018-03-26T00:04:10.867Z,788.06
2018-03-26T00:04:14.967Z,788.06
2018-03-26T00:04:19.073Z,788.09
2018-03-26T00:04:23.178Z,788.09
2018-03-26T00:04:27.065Z,788.12
2018-03-26T00:04:31.054Z,788.11
2018-03-26T00:04:35.152Z,788.1
2018-03-26T00:04:39.475Z,788.08
2018-03-26T00:04:43.470Z,788.13
2018-03-26T00:04:47.677Z,788.08
2018-03-26T00:04:51.669Z,788.15
2018-03-26T00:04:55.773Z,788.14
2018-03-26T00:04:59.870Z,788.14
2018-03-26T00:05:04.120Z,788.16
2018-03-26T00:05:08.109Z,788.13
2018-03-26T00:05:12.315Z,788.13
2018-03-26T00:05:16.310Z,788.18
2018-03-26T00:05:20.307Z,788.18
2018-03-26T00:05:24.190Z,788.14
2018-03-26T00:05:27.975Z,788.16
2018-03-26T00:05:32.083Z,788.16
2018-03-26T00:05:36.078Z,788.17
2018-03-26T00:05:40.286Z,788.2
2018-03-26T00:05:44.286Z,788.16
2018-03-26T00:05:48.387Z,788.16
2018-03-26T00:05:52.378Z,788.15
2018-03-26T00:05:56.371Z,788.17
2018-03-26T00:06:00.471Z,788.15
2018-03-26T00:06:04.595Z,788.22
2018-03-26T00:06:08.586Z,788.27
2018-03-26T00:06:12.686Z,788.2
2018-03-26T00:06:17.005Z,788.22
2018-03-26T00:06:20.996Z,788.2
2018-03-26T00:06:25.103Z,788.21
2018-03-26T00:06:29.315Z,788.24
2018-03-26T00:06:33.305Z,788.26
2018-03-26T00:06:37.618Z,788.24
2018-03-26T00:06:41.938Z,788.25
2018-03-26T00:06:46.037Z,788.27
2018-03-26T00:06:50.023Z,788.29
2018-03-26T00:06:54.118Z,788.26
2018-03-26T00:06:57.998Z,788.24
2018-03-26T00:07:01.991Z,788.27
2018-03-26T00:07:06.095Z,788.23
2018-03-26T00:07:10.305Z,788.28
2018-03-26T00:07:14.416Z,788.29
2018-03-26T00:07:18.637Z,788.28
2018-03-26T00:07:22.643Z,788.3
2018-03-26T00:07:26.772Z,788.29
2018-03-26T00:07:30.852Z,788.29
2018-03-26T00:07:35.067Z,788.26
2018-03-26T00:07:39.162Z,788.23
2018-03-26T00:07:43.370Z,788.25
2018-03-26T00:07:47.475Z,788.26
2018-03-26T00:07:51.703Z,788.27
2018-03-26T00:07:55.803Z,788.29
2018-03-26T00:08:00.022Z,788.26
2018-03-26T00:08:04.371Z,788.34
2018-03-26T00:08:08.600Z,788.32
2018-03-26T00:08:12.752Z,788.33
2018-03-26T00:08:16.963Z,788.28
2018-03-26T00:08:20.962Z,788.32
2018-03-26T00:08:25.061Z,788.32
2018-03-26T00:08:29.277Z,788.32
2018-03-26T00:08:33.270Z,788.32
2018-03-26T00:08:37.273Z,788.32
2018-03-26T00:08:41.265Z,788.33
2018-03-26T00:08:45.039Z,788.34
2018-03-26T00:08:49.254Z,788.34
2018-03-26T00:08:53.246Z,788.36
2018-03-26T00:08:57.239Z,788.33
2018-03-26T00:09:01.450Z,788.33
2018-03-26T00:09:05.690Z,788.33
2018-03-26T00:09:09.802Z,788.37
2018-03-26T00:09:13.938Z,788.35
2018-03-26T00:09:17.934Z,788.33
2018-03-26T00:09:22.265Z,788.34
2018-03-26T00:09:26.254Z,788.33
2018-03-26T00:09:30.467Z,788.34
2018-03-26T00:09:34.779Z,788.33
2018-03-26T00:09:38.988Z,788.36
2018-03-26T00:09:43.207Z,788.36
2018-03-26T00:09:47.418Z,788.33
2018-03-26T00:09:51.435Z,788.34
2018-03-26T00:09:55.538Z,788.35
2018-03-26T00:09:59.419Z,788.34
2018-03-26T00:10:03.414Z,788.34
2018-03-26T00:10:07.405Z,788.37
2018-03-26T00:10:11.508Z,788.36
2018-03-26T00:10:15.732Z,788.39
2018-03-26T00:10:19.943Z,788.34
2018-03-26T00:10:24.152Z,788.35
2018-03-26T00:10:28.151Z,788.34
2018-03-26T00:10:32.457Z,788.37
2018-03-26T00:10:36.569Z,788.36
2018-03-26T00:10:40.563Z,788.36
2018-03-26T00:10:44.564Z,788.37
2018-03-26T00:10:48.669Z,788.37
2018-03-26T00:10:52.878Z,788.35
2018-03-26T00:10:57.089Z,788.35
2018-03-26T00:11:01.184Z,788.38
2018-03-26T00:11:05.588Z,788.38
2018-03-26T00:11:09.470Z,788.36
2018-03-26T00:11:13.458Z,788.36
2018-03-26T00:11:17.345Z,788.39
2018-03-26T00:11:21.565Z,788.38
2018-03-26T00:11:25.902Z,788.37
2018-03-26T00:11:29.895Z,788.34
2018-03-26T00:11:33.896Z,788.34
2018-03-26T00:11:37.997Z,788.39
2018-03-26T00:11:42.209Z,788.38
2018-03-26T00:11:46.419Z,788.34
2018-03-26T00:11:50.525Z,788.39
2018-03-26T00:11:54.737Z,788.37
2018-03-26T00:11:58.866Z,788.39
2018-03-26T00:12:03.268Z,788.37
2018-03-26T00:12:07.372Z,788.37
2018-03-26T00:12:11.687Z,788.36
2018-03-26T00:12:15.892Z,788.38
2018-03-26T00:12:20.115Z,788.37
2018-03-26T00:12:24.123Z,788.36
2018-03-26T00:12:28.226Z,788.37
2018-03-26T00:12:32.449Z,788.38
2018-03-26T00:12:36.654Z,788.36
2018-03-26T00:12:40.751Z,788.39
2018-03-26T00:12:44.745Z,788.36
2018-03-26T00:12:48.737Z,788.37
2018-03-26T00:12:52.953Z,788.41
2018-03-26T00:12:57.061Z,788.39
2018-03-26T00:13:01.278Z,788.39
2018-03-26T00:13:05.492Z,788.39
2018-03-26T00:13:09.826Z,788.33
2018-03-26T00:13:13.923Z,788.35
2018-03-26T00:13:17.920Z,788.36
2018-03-26T00:13:22.133Z,788.37
2018-03-26T00:13:26.126Z,788.38
2018-03-26T00:13:30.118Z,788.39
2018-03-26T00:13:34.332Z,788.36
2018-03-26T00:13:38.429Z,788.38
2018-03-26T00:13:42.685Z,788.37
2018-03-26T00:13:46.999Z,788.38
2018-03-26T00:13:51.035Z,788.35
2018-03-26T00:13:55.141Z,788.38
2018-03-26T00:13:59.240Z,788.38
2018-03-26T00:14:03.249Z,788.38
2018-03-26T00:14:07.136Z,788.36
2018-03-26T00:14:11.236Z,788.41
2018-03-26T00:14:15.439Z,788.4
2018-03-26T00:14:19.645Z,788.37
2018-03-26T00:14:23.854Z,788.39
2018-03-26T00:14:27.842Z,788.38
2018-03-26T00:14:31.834Z,788.39
2018-03-26T00:14:36.039Z,788.36
2018-03-26T00:14:40.035Z,788.37
2018-03-26T00:14:44.272Z,788.38
2018-03-26T00:14:48.472Z,788.36
2018-03-26T00:14:52.248Z,788.36
2018-03-26T00:14:56.130Z,788.32
2018-03-26T00:15:00.136Z,788.36
2018-03-26T00:15:04.140Z,788.36
2018-03-26T00:15:08.023Z,788.37
2018-03-26T00:15:12.240Z,788.35
2018-03-26T00:15:16.564Z,788.37
2018-03-26T00:15:20.780Z,788.34
2018-03-26T00:15:24.940Z,788.35
2018-03-26T00:15:29.042Z,788.31
2018-03-26T00:15:33.035Z,788.39
2018-03-26T00:15:36.808Z,788.35
2018-03-26T00:15:41.117Z,788.35
2018-03-26T00:15:45.270Z,788.37
2018-03-26T00:15:49.268Z,788.38
2018-03-26T00:15:53.479Z,788.37
2018-03-26T00:15:57.577Z,788.31
2018-03-26T00:16:01.670Z,788.34
2018-03-26T00:16:05.665Z,788.33
2018-03-26T00:16:09.774Z,788.35
2018-03-26T00:16:13.543Z,788.38
2018-03-26T00:16:17.749Z,788.37
2018-03-26T00:16:21.867Z,788.36
2018-03-26T00:16:25.860Z,788.35
2018-03-26T00:16:29.855Z,788.36
2018-03-26T00:16:34.176Z,788.37
2018-03-26T00:16:38.489Z,788.37
2018-03-26T00:16:42.701Z,788.38
2018-03-26T00:16:46.694Z,788.35
2018-03-26T00:16:50.899Z,788.35
2018-03-26T00:16:55.103Z,788.32
2018-03-26T00:16:59.206Z,788.32
2018-03-26T00:17:03.308Z,788.31
2018-03-26T00:17:07.195Z,788.29
2018-03-26T00:17:11.406Z,788.29
2018-03-26T00:17:15.505Z,788.3
2018-03-26T00:17:19.826Z,788.33
2018-03-26T00:17:23.927Z,788.32
2018-03-26T00:17:28.024Z,788.31
2018-03-26T00:17:32.337Z,788.33
2018-03-26T00:17:36.650Z,788.31
2018-03-26T00:17:40.856Z,788.32
2018-03-26T00:17:44.952Z,788.37
2018-03-26T00:17:49.162Z,788.34
2018-03-26T00:17:53.263Z,788.39
2018-03-26T00:17:57.262Z,788.38
2018-03-26T00:18:01.824Z,788.35
2018-03-26T00:18:05.598Z,788.36
2018-03-26T00:18:09.811Z,788.37
2018-03-26T00:18:13.917Z,788.36
2018-03-26T00:18:18.129Z,788.37
2018-03-26T00:18:22.016Z,788.36
2018-03-26T00:18:26.227Z,788.36
2018-03-26T00:18:30.325Z,788.36
2018-03-26T00:18:34.319Z,788.39
2018-03-26T00:18:38.532Z,788.36
2018-03-26T00:18:42.466Z,788.36
2018-03-26T00:18:46.576Z,788.38
2018-03-26T00:18:50.682Z,788.37
2018-03-26T00:18:54.783Z,788.38
2018-03-26T00:18:58.773Z,788.4
2018-03-26T00:19:03.067Z,788.39
2018-03-26T00:19:07.230Z,788.38
2018-03-26T00:19:11.334Z,788.38
2018-03-26T00:19:15.321Z,788.34
2018-03-26T00:19:19.655Z,788.36
2018-03-26T00:19:23.535Z,788.37
2018-03-26T00:19:27.420Z,788.39
2018-03-26T00:19:31.306Z,788.38
2018-03-26T00:19:35.627Z,788.41
2018-03-26T00:19:39.843Z,788.38
2018-03-26T00:19:43.943Z,788.36
2018-03-26T00:19:48.264Z,788.37
2018-03-26T00:19:52.583Z,788.37
2018-03-26T00:19:56.789Z,788.4
2018-03-26T00:20:00.891Z,788.35
2018-03-26T00:20:04.783Z,788.36
2018-03-26T00:20:08.886Z,788.36
2018-03-26T00:20:12.986Z,788.38
2018-03-26T00:20:17.085Z,788.36
2018-03-26T00:20:21.403Z,788.38
2018-03-26T00:20:25.502Z,788.32
2018-03-26T00:20:29.706Z,788.31
2018-03-26T00:20:33.701Z,788.29
2018-03-26T00:20:37.686Z,788.32
2018-03-26T00:20:41.786Z,788.3
2018-03-26T00:20:45.781Z,788.3
2018-03-26T00:20:49.982Z,788.33
2018-03-26T00:20:54.085Z,788.33
2018-03-26T00:20:57.969Z,788.34
2018-03-26T00:21:02.078Z,788.32
2018-03-26T00:21:06.400Z,788.31
2018-03-26T00:21:10.615Z,788.29
2018-03-26T00:21:14.713Z,788.31
2018-03-26T00:21:18.930Z,788.29
2018-03-26T00:21:23.254Z,788.25
2018-03-26T00:21:27.356Z,788.27
2018-03-26T00:21:31.354Z,788.26
2018-03-26T00:21:35.561Z,788.28
2018-03-26T00:21:39.817Z,788.32
2018-03-26T00:21:44.023Z,788.33
2018-03-26T00:21:48.312Z,788.33
2018-03-26T00:21:52.718Z,788.31
2018-03-26T00:21:57.016Z,788.29
2018-03-26T00:22:01.123Z,788.28
2018-03-26T00:22:05.159Z,788.28
2018-03-26T00:22:09.255Z,788.31
2018-03-26T00:22:13.242Z,788.31
2018-03-26T00:22:17.456Z,788.29
2018-03-26T00:22:21.462Z,788.28
2018-03-26T00:22:25.555Z,788.3
2018-03-26T00:22:29.879Z,788.3
2018-03-26T00:22:33.981Z,788.26
2018-03-26T00:22:38.081Z,788.3
2018-03-26T00:22:42.131Z,788.27
2018-03-26T00:22:46.127Z,788.26
2018-03-26T00:22:50.146Z,788.27
2018-03-26T00:22:54.462Z,788.21
2018-03-26T00:22:58.454Z,788.26
2018-03-26T00:23:02.557Z,788.26
2018-03-26T00:23:06.656Z,788.25
2018-03-26T00:23:10.757Z,788.3
2018-03-26T00:23:15.118Z,788.24
2018-03-26T00:23:19.115Z,788.26
2018-03-26T00:23:23.213Z,788.24
2018-03-26T00:23:27.423Z,788.24
2018-03-26T00:23:31.522Z,788.23
2018-03-26T00:23:35.619Z,788.23
2018-03-26T00:23:39.717Z,788.24
2018-03-26T00:23:43.612Z,788.17
2018-03-26T00:23:47.931Z,788.16
2018-03-26T00:23:52.031Z,788.22
2018-03-26T00:23:56.132Z,788.17
2018-03-26T00:24:00.121Z,788.18
2018-03-26T00:24:04.109Z,788.22
2018-03-26T00:24:08.209Z,788.2
2018-03-26T00:24:12.522Z,788.19
2018-03-26T00:24:16.404Z,788.17
2018-03-26T00:24:20.505Z,788.19
2018-03-26T00:24:24.709Z,788.13
2018-03-26T00:24:28.592Z,788.17
2018-03-26T00:24:32.693Z,788.18
2018-03-26T00:24:36.580Z,788.17
2018-03-26T00:24:40.466Z,788.16
2018-03-26T00:24:44.659Z,788.16
2018-03-26T00:24:48.866Z,788.14
2018-03-26T00:24:52.967Z,788.14
2018-03-26T00:24:56.961Z,788.14
2018-03-26T00:25:00.960Z,788.14
2018-03-26T00:25:05.367Z,788.16
2018-03-26T00:25:09.689Z,788.12
2018-03-26T00:25:13.681Z,788.15
2018-03-26T00:25:17.789Z,788.12
2018-03-26T00:25:21.993Z,788.09
2018-03-26T00:25:25.980Z,788.1
2018-03-26T00:25:29.975Z,788.13
2018-03-26T00:25:34.235Z,788.13
2018-03-26T00:25:38.116Z,788.08
2018-03-26T00:25:42.223Z,788.11
2018-03-26T00:25:46.481Z,788.09
2018-03-26T00:25:50.471Z,788.08
2018-03-26T00:25:54.462Z,788.08
2018-03-26T00:25:58.618Z,788.08
2018-03-26T00:26:02.871Z,788.07
2018-03-26T00:26:06.645Z,788.07
2018-03-26T00:26:10.631Z,788.05
2018-03-26T00:26:14.733Z,788.06
2018-03-26T00:26:18.830Z,788.03
2018-03-26T00:26:22.928Z,788.09
2018-03-26T00:26:27.026Z,788.02
2018-03-26T00:26:31.134Z,788.08
2018-03-26T00:26:35.241Z,788.04
2018-03-26T00:26:39.240Z,788.06
2018-03-26T00:26:43.556Z,788.07
2018-03-26T00:26:47.771Z,788.04
2018-03-26T00:26:51.653Z,788.04
2018-03-26T00:26:55.746Z,788.02
2018-03-26T00:26:59.955Z,788
2018-03-26T00:27:03.995Z,788
2018-03-26T00:27:08.004Z,787.97
2018-03-26T00:27:12.566Z,788.01
2018-03-26T00:27:16.868Z,788.01
2018-03-26T00:27:20.998Z,788.04
2018-03-26T00:27:25.100Z,787.98
2018-03-26T00:27:29.085Z,788.01
2018-03-26T00:27:33.181Z,787.95
2018-03-26T00:27:37.171Z,787.94
2018-03-26T00:27:41.376Z,787.96
2018-03-26T00:27:45.358Z,787.96
2018-03-26T00:27:49.564Z,787.96
2018-03-26T00:27:53.778Z,787.96
2018-03-26T00:27:57.766Z,787.96
2018-03-26T00:28:02.116Z,787.95
2018-03-26T00:28:06.333Z,787.94
2018-03-26T00:28:10.440Z,787.93
2018-03-26T00:28:14.651Z,787.92
2018-03-26T00:28:18.749Z,787.91
2018-03-26T00:28:22.858Z,787.92
2018-03-26T00:28:26.855Z,787.9
2018-03-26T00:28:30.954Z,787.9
2018-03-26T00:28:34.835Z,787.9
2018-03-26T00:28:38.935Z,787.9
2018-03-26T00:28:42.924Z,787.93
2018-03-26T00:28:47.134Z,787.89
2018-03-26T00:28:51.228Z,787.91
2018-03-26T00:28:55.325Z,787.88
2018-03-26T00:28:59.314Z,787.9
2018-03-26T00:29:03.513Z,787.87
2018-03-26T00:29:07.615Z,787.88
2018-03-26T00:29:11.821Z,787.89
2018-03-26T00:29:15.930Z,787.85
2018-03-26T00:29:20.246Z,787.87
2018-03-26T00:29:24.458Z,787.86
2018-03-26T00:29:28.669Z,787.83
2018-03-26T00:29:32.552Z,787.86
2018-03-26T00:29:36.543Z,787.84
2018-03-26T00:29:40.748Z,787.83
2018-03-26T00:29:44.734Z,787.81
2018-03-26T00:29:48.728Z,787.84
2018-03-26T00:29:53.053Z,787.8
2018-03-26T00:29:57.042Z,787.82
2018-03-26T00:30:00.932Z,787.81
2018-03-26T00:30:05.178Z,787.79
2018-03-26T00:30:09.281Z,787.79
2018-03-26T00:30:13.274Z,787.8
2018-03-26T00:30:17.480Z,787.79
2018-03-26T00:30:21.363Z,787.77
2018-03-26T00:30:25.247Z,787.71
2018-03-26T00:30:29.242Z,787.72
2018-03-26T00:30:33.349Z,787.7
2018-03-26T00:30:37.664Z,787.72
2018-03-26T00:30:41.789Z,787.73
2018-03-26T00:30:45.563Z,787.76
2018-03-26T00:30:49.771Z,787.74
2018-03-26T00:30:53.875Z,787.72
2018-03-26T00:30:57.864Z,787.73
2018-03-26T00:31:01.978Z,787.72
2018-03-26T00:31:06.200Z,787.7
2018-03-26T00:31:10.301Z,787.72
2018-03-26T00:31:14.408Z,787.7
2018-03-26T00:31:18.735Z,787.72
2018-03-26T00:31:22.995Z,787.68
2018-03-26T00:31:27.198Z,787.67
2018-03-26T00:31:31.513Z,787.64
2018-03-26T00:31:35.505Z,787.65
2018-03-26T00:31:39.394Z,787.68
2018-03-26T00:31:43.615Z,787.66
2018-03-26T00:31:47.833Z,787.66
2018-03-26T00:31:51.827Z,787.61
2018-03-26T00:31:56.034Z,787.59
2018-03-26T00:32:00.152Z,787.59
2018-03-26T00:32:04.143Z,787.61
2018-03-26T00:32:08.349Z,787.64
2018-03-26T00:32:12.243Z,787.61
2018-03-26T00:32:16.359Z,787.59
2018-03-26T00:32:20.365Z,787.6
2018-03-26T00:32:24.574Z,787.59
2018-03-26T00:32:28.344Z,787.54
2018-03-26T00:32:32.225Z,787.53
2018-03-26T00:32:36.217Z,787.56
2018-03-26T00:32:40.204Z,787.54
2018-03-26T00:32:44.203Z,787.53
2018-03-26T00:32:48.193Z,787.56
2018-03-26T00:32:52.300Z,787.53
2018-03-26T00:32:56.503Z,787.52
2018-03-26T00:33:00.824Z,787.51
2018-03-26T00:33:05.285Z,787.48
2018-03-26T00:33:09.281Z,787.45
2018-03-26T00:33:13.390Z,787.5
2018-03-26T00:33:17.601Z,787.46
2018-03-26T00:33:21.601Z,787.45
2018-03-26T00:33:25.594Z,787.44
2018-03-26T00:33:29.798Z,787.46
2018-03-26T00:33:33.790Z,787.46
2018-03-26T00:33:37.993Z,787.45
2018-03-26T00:33:42.030Z,787.43
2018-03-26T00:33:46.236Z,787.42
2018-03-26T00:33:50.339Z,787.39
2018-03-26T00:33:54.438Z,787.39
2018-03-26T00:33:58.429Z,787.37
2018-03-26T00:34:02.562Z,787.35
2018-03-26T00:34:06.720Z,787.36
2018-03-26T00:34:10.712Z,787.35
2018-03-26T00:34:14.814Z,787.33
2018-03-26T00:34:19.019Z,787.31
2018-03-26T00:34:23.123Z,787.3
2018-03-26T00:34:26.901Z,787.29
2018-03-26T00:34:30.994Z,787.29
2018-03-26T00:34:35.092Z,787.32
2018-03-26T00:34:38.973Z,787.28
2018-03-26T00:34:42.962Z,787.26
2018-03-26T00:34:47.393Z,787.25
2018-03-26T00:34:52.090Z,787.26
2018-03-26T00:34:56.163Z,787.25
2018-03-26T00:35:00.474Z,787.2
2018-03-26T00:35:04.516Z,787.23
2018-03-26T00:35:08.735Z,787.24
2018-03-26T00:35:12.730Z,787.19
2018-03-26T00:35:16.828Z,787.2
2018-03-26T00:35:20.825Z,787.18
2018-03-26T00:35:24.821Z,787.14
2018-03-26T00:35:29.034Z,787.14
2018-03-26T00:35:32.807Z,787.12
2018-03-26T00:35:36.814Z,787.15
2018-03-26T00:35:41.020Z,787.12
2018-03-26T00:35:45.114Z,787.11
2018-03-26T00:35:49.216Z,787.11
2018-03-26T00:35:53.420Z,787.11
2018-03-26T00:35:57.304Z,787.12
2018-03-26T00:36:01.508Z,787.11
2018-03-26T00:36:05.607Z,787.07
2018-03-26T00:36:09.495Z,787.07
2018-03-26T00:36:13.384Z,787.06
2018-03-26T00:36:17.700Z,787.04
2018-03-26T00:36:21.808Z,787.02
2018-03-26T00:36:25.802Z,787
2018-03-26T00:36:29.792Z,787
2018-03-26T00:36:33.783Z,787.02
2018-03-26T00:36:37.882Z,787
2018-03-26T00:36:41.988Z,787.02
2018-03-26T00:36:45.877Z,786.98
2018-03-26T00:36:49.766Z,786.98
2018-03-26T00:36:53.974Z,786.95
2018-03-26T00:36:58.068Z,786.95
2018-03-26T00:37:02.222Z,786.93
2018-03-26T00:37:06.337Z,786.95
2018-03-26T00:37:10.333Z,786.91
2018-03-26T00:37:14.439Z,786.93
2018-03-26T00:37:18.540Z,786.85
2018-03-26T00:37:22.543Z,786.84
2018-03-26T00:37:26.533Z,786.84
2018-03-26T00:37:30.743Z,786.86
2018-03-26T00:37:34.628Z,786.85
2018-03-26T00:37:38.618Z,786.85
2018-03-26T00:37:42.498Z,786.86
2018-03-26T00:37:46.488Z,786.79
2018-03-26T00:37:50.592Z,786.76
2018-03-26T00:37:54.695Z,786.8
2018-03-26T00:37:58.576Z,786.82
2018-03-26T00:38:02.565Z,786.79
2018-03-26T00:38:06.666Z,786.79
2018-03-26T00:38:10.713Z,786.77
2018-03-26T00:38:15.029Z,786.75
2018-03-26T00:38:18.915Z,786.71
2018-03-26T00:38:23.128Z,786.73
2018-03-26T00:38:27.450Z,786.72
2018-03-26T00:38:31.772Z,786.71
2018-03-26T00:38:35.880Z,786.72
2018-03-26T00:38:40.194Z,786.72
2018-03-26T00:38:44.074Z,786.71
2018-03-26T00:38:48.178Z,786.71
2018-03-26T00:38:52.176Z,786.71
2018-03-26T00:38:56.177Z,786.68
2018-03-26T00:39:00.401Z,786.72
2018-03-26T00:39:04.338Z,786.67
2018-03-26T00:39:08.335Z,786.71
2018-03-26T00:39:12.219Z,786.68
2018-03-26T00:39:16.431Z,786.67
2018-03-26T00:39:20.527Z,786.64
2018-03-26T00:39:24.626Z,786.61
2018-03-26T00:39:28.618Z,786.63
2018-03-26T00:39:32.505Z,786.6
2018-03-26T00:39:36.718Z,786.6
2018-03-26T00:39:40.713Z,786.59
2018-03-26T00:39:44.932Z,786.6
2018-03-26T00:39:48.923Z,786.58
2018-03-26T00:39:52.702Z,786.57
2018-03-26T00:39:56.916Z,786.57
2018-03-26T00:40:00.912Z,786.58
2018-03-26T00:40:04.829Z,786.57
2018-03-26T00:40:08.820Z,786.57
2018-03-26T00:40:12.597Z,786.57
2018-03-26T00:40:16.587Z,786.53
2018-03-26T00:40:20.683Z,786.54
2018-03-26T00:40:24.894Z,786.51
2018-03-26T00:40:29.097Z,786.52
2018-03-26T00:40:33.086Z,786.52
2018-03-26T00:40:37.288Z,786.5
2018-03-26T00:40:41.277Z,786.48
2018-03-26T00:40:45.268Z,786.44
2018-03-26T00:40:49.265Z,786.45
2018-03-26T00:40:53.262Z,786.45
2018-03-26T00:40:57.361Z,786.44
2018-03-26T00:41:01.719Z,786.45
2018-03-26T00:41:05.389Z,786.43
2018-03-26T00:41:09.486Z,786.39
2018-03-26T00:41:13.477Z,786.41
2018-03-26T00:41:17.400Z,786.4
2018-03-26T00:41:21.402Z,786.4
2018-03-26T00:41:25.397Z,786.35
2018-03-26T00:41:29.400Z,786.37
2018-03-26T00:41:33.624Z,786.39
2018-03-26T00:41:37.615Z,786.38
2018-03-26T00:41:41.723Z,786.33
2018-03-26T00:41:46.051Z,786.36
2018-03-26T00:41:50.149Z,786.32
2018-03-26T00:41:54.250Z,786.35
2018-03-26T00:41:58.346Z,786.33
2018-03-26T00:42:02.229Z,786.31
2018-03-26T00:42:06.331Z,786.31
2018-03-26T00:42:10.432Z,786.31
2018-03-26T00:42:14.315Z,786.3
2018-03-26T00:42:18.578Z,786.26
2018-03-26T00:42:22.894Z,786.24
2018-03-26T00:42:26.889Z,786.22
2018-03-26T00:42:31.109Z,786.21
2018-03-26T00:42:35.210Z,786.24
2018-03-26T00:42:39.092Z,786.21
2018-03-26T00:42:43.082Z,786.21
2018-03-26T00:42:47.177Z,786.22
2018-03-26T00:42:51.408Z,786.23
2018-03-26T00:42:55.509Z,786.18
2018-03-26T00:42:59.615Z,786.18
2018-03-26T00:43:03.912Z,786.18
2018-03-26T00:43:08.034Z,786.17
2018-03-26T00:43:12.238Z,786.13
2018-03-26T00:43:16.335Z,786.13
2018-03-26T00:43:20.437Z,786.13
2018-03-26T00:43:24.543Z,786.12
2018-03-26T00:43:28.744Z,786.1
2018-03-26T00:43:32.843Z,786.09
2018-03-26T00:43:37.157Z,786.07
2018-03-26T00:43:41.373Z,786.09
2018-03-26T00:43:45.577Z,786.08
2018-03-26T00:43:49.788Z,786.08
2018-03-26T00:43:53.891Z,786.06
2018-03-26T00:43:58.000Z,786.06
2018-03-26T00:44:02.446Z,786.04
2018-03-26T00:44:06.551Z,786.04
2018-03-26T00:44:10.557Z,786.02
2018-03-26T00:44:14.667Z,786.01
2018-03-26T00:44:18.766Z,786.01
2018-03-26T00:44:22.648Z,786.01
2018-03-26T00:44:26.530Z,786
2018-03-26T00:44:30.413Z,785.99
2018-03-26T00:44:34.404Z,786
2018-03-26T00:44:38.511Z,785.99
2018-03-26T00:44:42.409Z,786
2018-03-26T00:44:46.613Z,785.95
2018-03-26T00:44:50.713Z,785.97
2018-03-26T00:44:54.707Z,785.95
2018-03-26T00:44:58.917Z,785.94
2018-03-26T00:45:03.177Z,785.92
2018-03-26T00:45:07.391Z,785.91
2018-03-26T00:45:11.592Z,785.92
2018-03-26T00:45:15.690Z,785.9
2018-03-26T00:45:19.903Z,785.88
2018-03-26T00:45:23.893Z,785.93
2018-03-26T00:45:27.780Z,785.88
2018-03-26T00:45:31.664Z,785.9
2018-03-26T00:45:35.547Z,785.86
2018-03-26T00:45:39.911Z,785.86
2018-03-26T00:45:44.009Z,785.87
2018-03-26T00:45:48.219Z,785.84
2018-03-26T00:45:52.210Z,785.85
2018-03-26T00:46:28.311Z,785.73
2018-03-26T00:46:32.414Z,785.71
2018-03-26T00:46:36.401Z,785.73
2018-03-26T00:46:40.402Z,785.74
2018-03-26T00:46:44.397Z,785.72
2018-03-26T00:46:48.499Z,785.69
2018-03-26T00:46:52.714Z,785.67
2018-03-26T00:46:56.702Z,785.75
2018-03-26T00:47:00.800Z,785.71
2018-03-26T00:47:05.037Z,785.73
2018-03-26T00:47:09.295Z,785.7
2018-03-26T00:47:13.397Z,785.66
2018-03-26T00:47:17.497Z,785.71
2018-03-26T00:47:21.488Z,785.67
2018-03-26T00:47:25.596Z,785.64
2018-03-26T00:47:29.589Z,785.7
2018-03-26T00:47:33.468Z,785.67
2018-03-26T00:47:37.832Z,785.69
2018-03-26T00:47:41.829Z,785.65
2018-03-26T00:47:46.144Z,785.68
2018-03-26T00:47:50.140Z,785.65
2018-03-26T00:47:54.020Z,785.64
2018-03-26T00:47:58.121Z,785.58
2018-03-26T00:48:02.005Z,785.64
2018-03-26T00:48:05.780Z,785.62
2018-03-26T00:48:09.876Z,785.58
2018-03-26T00:48:13.869Z,785.59
2018-03-26T00:48:18.190Z,785.59
2018-03-26T00:48:22.399Z,785.57
2018-03-26T00:48:26.391Z,785.56
2018-03-26T00:48:30.706Z,785.56
2018-03-26T00:48:34.810Z,785.56
2018-03-26T00:48:38.697Z,785.57
2018-03-26T00:48:42.681Z,785.53
2018-03-26T00:48:46.465Z,785.53
2018-03-26T00:48:50.461Z,785.54
2018-03-26T00:48:54.449Z,785.53
2018-03-26T00:48:58.543Z,785.53
2018-03-26T00:49:02.756Z,785.54
2018-03-26T00:49:06.532Z,785.51
2018-03-26T00:49:10.520Z,785.57
2018-03-26T00:49:14.622Z,785.55
2018-03-26T00:49:18.612Z,785.56
2018-03-26T00:49:22.715Z,785.55
2018-03-26T00:49:26.709Z,785.53
2018-03-26T00:49:30.820Z,785.53
2018-03-26T00:49:34.815Z,785.54
2018-03-26T00:49:39.023Z,785.51
2018-03-26T00:49:43.018Z,785.54
2018-03-26T00:49:47.132Z,785.53
2018-03-26T00:49:51.123Z,785.53
2018-03-26T00:49:55.225Z,785.5
2018-03-26T00:49:58.999Z,785.52
2018-03-26T00:50:02.994Z,785.51
2018-03-26T00:50:06.772Z,785.51
2018-03-26T00:50:10.977Z,785.51
2018-03-26T00:50:15.079Z,785.53
2018-03-26T00:50:19.072Z,785.52
2018-03-26T00:50:23.275Z,785.5
2018-03-26T00:50:27.377Z,785.48
2018-03-26T00:50:31.259Z,785.48
2018-03-26T00:50:35.419Z,785.53
2018-03-26T00:50:39.528Z,785.48
2018-03-26T00:50:43.622Z,785.5
2018-03-26T00:50:47.932Z,785.47
2018-03-26T00:50:52.028Z,785.47
2018-03-26T00:50:56.241Z,785.47
2018-03-26T00:50:59.907Z,785.47
2018-03-26T00:51:03.902Z,785.48
2018-03-26T00:51:08.112Z,785.51
2018-03-26T00:51:11.997Z,785.46
2018-03-26T00:51:16.103Z,785.46
2018-03-26T00:51:20.304Z,785.42
2018-03-26T00:51:24.399Z,785.47
2018-03-26T00:51:28.172Z,785.44
2018-03-26T00:51:32.062Z,785.47
2018-03-26T00:51:36.057Z,785.45
2018-03-26T00:51:40.264Z,785.46
2018-03-26T00:51:44.365Z,785.43